Time;durP1;ratioP1;P1;durP2;ratioP2;P2;SDS_P1;SDS_P2;PMS_P1;PMS_P2;Temp;Humidity;BMP_temperature;BMP_pressure;BME280_temperature;BME280_humidity;BME280_pressure;Samples;Min_cycle;Max_cycle;Signal;HPM_P1;HPM_P2
2022/07/14 00:00:39;;;;;;;0.43;0.43;;;22.00;87.10;;;;;;5074732;28;20482;-83
2022/07/14 00:03:06;;;;;;;0.60;0.60;;;22.00;87.40;;;;;;5075037;28;20449;-83
2022/07/14 00:05:35;;;;;;;0.73;0.70;;;22.00;87.80;;;;;;5074980;28;20522;-84
2022/07/14 00:08:02;;;;;;;0.50;0.50;;;22.00;88.40;;;;;;5074767;28;20486;-83
2022/07/14 00:10:28;;;;;;;0.53;0.53;;;22.00;89.00;;;;;;5074883;28;20464;-83
2022/07/14 00:12:55;;;;;;;1.63;0.57;;;22.00;89.80;;;;;;5074797;28;20451;-84
2022/07/14 00:15:22;;;;;;;0.70;0.60;;;22.00;90.20;;;;;;5074779;28;20464;-83
2022/07/14 00:17:49;;;;;;;4.07;0.57;;;21.90;90.20;;;;;;5074649;28;20464;-84
2022/07/14 00:20:16;;;;;;;0.60;0.50;;;21.90;90.40;;;;;;5074423;28;20807;-84
2022/07/14 00:22:44;;;;;;;0.60;0.50;;;21.80;90.60;;;;;;5074327;28;20936;-84
2022/07/14 00:25:11;;;;;;;0.40;0.40;;;21.80;90.80;;;;;;5074610;28;20451;-83
2022/07/14 00:27:38;;;;;;;2.37;0.50;;;21.70;91.20;;;;;;5074040;28;20880;-83
2022/07/14 00:30:06;;;;;;;0.43;0.43;;;21.70;91.40;;;;;;5074204;28;20955;-84
2022/07/14 00:32:34;;;;;;;0.90;0.70;;;21.60;91.40;;;;;;5074410;28;20500;-83
2022/07/14 00:35:01;;;;;;;0.53;0.53;;;21.60;91.60;;;;;;5074370;28;20539;-83
2022/07/14 00:37:28;;;;;;;0.57;0.57;;;21.50;91.60;;;;;;5073838;28;21043;-84
2022/07/14 00:39:57;;;;;;;0.73;0.63;;;21.50;91.50;;;;;;5073107;28;20952;-84
2022/07/14 00:42:34;;;;;;;0.60;0.60;;;21.40;91.10;;;;;;5074191;28;20452;-84
2022/07/14 00:45:03;;;;;;;0.60;0.60;;;21.40;90.70;;;;;;5073936;28;20439;-84
2022/07/14 00:47:29;;;;;;;0.57;0.57;;;21.40;90.00;;;;;;5073789;28;21010;-83
2022/07/14 00:49:57;;;;;;;0.63;0.50;;;21.50;90.40;;;;;;5073801;28;20822;-84
2022/07/14 00:52:26;;;;;;;0.50;0.50;;;21.50;90.00;;;;;;5074016;28;20444;-84
2022/07/14 00:54:55;;;;;;;0.80;0.80;;;21.50;90.30;;;;;;5073957;28;20452;-83
2022/07/14 00:57:23;;;;;;;0.60;0.60;;;21.40;90.40;;;;;;5073880;28;20456;-84
2022/07/14 00:59:50;;;;;;;0.60;0.50;;;21.40;90.80;;;;;;5073924;28;20452;-84
2022/07/14 01:02:18;;;;;;;0.50;0.50;;;21.30;91.00;;;;;;5073902;28;20448;-83
2022/07/14 01:04:46;;;;;;;0.60;0.60;;;21.30;91.20;;;;;;5073546;28;20822;-84
2022/07/14 01:07:13;;;;;;;0.60;0.60;;;21.20;91.50;;;;;;5073676;28;20484;-84
2022/07/14 01:09:41;;;;;;;1.93;0.53;;;21.20;91.80;;;;;;5073750;28;20461;-83
2022/07/14 01:12:09;;;;;;;0.67;0.67;;;21.10;92.00;;;;;;5073731;28;20448;-84
2022/07/14 01:14:36;;;;;;;0.60;0.53;;;21.00;91.90;;;;;;5073745;28;20448;-84
2022/07/14 01:17:04;;;;;;;0.53;0.53;;;20.90;91.40;;;;;;5073573;28;20440;-84
2022/07/14 01:19:31;;;;;;;0.60;0.60;;;20.90;91.30;;;;;;5073624;28;20444;-84
2022/07/14 01:22:00;;;;;;;0.40;0.40;;;20.80;91.30;;;;;;5073613;28;20448;-84
2022/07/14 01:24:28;;;;;;;0.70;0.60;;;20.80;91.00;;;;;;5073293;28;20456;-84
2022/07/14 01:26:55;;;;;;;0.40;0.40;;;20.80;90.10;;;;;;5073090;28;20986;-84
2022/07/14 01:29:22;;;;;;;0.50;0.50;;;20.80;88.40;;;;;;5073546;28;20446;-84
2022/07/14 01:31:49;;;;;;;0.60;0.60;;;20.80;87.00;;;;;;5073498;28;20440;-83
2022/07/14 01:34:16;;;;;;;0.50;0.50;;;20.90;87.30;;;;;;5073140;28;20958;-83
2022/07/14 01:36:43;;;;;;;0.67;0.60;;;20.80;87.20;;;;;;5073289;28;20456;-84
2022/07/14 01:39:12;;;;;;;0.60;0.60;;;20.90;87.90;;;;;;5073410;28;20478;-84
2022/07/14 01:41:39;;;;;;;0.57;0.57;;;20.90;86.50;;;;;;5073418;28;20503;-84
2022/07/14 01:44:05;;;;;;;0.63;0.63;;;20.80;86.50;;;;;;5073421;28;20444;-84
2022/07/14 01:46:32;;;;;;;0.50;0.50;;;20.80;86.90;;;;;;5073285;28;20451;-84
2022/07/14 01:48:59;;;;;;;0.50;0.50;;;20.80;86.70;;;;;;5073313;28;20490;-83
2022/07/14 01:51:26;;;;;;;0.40;0.40;;;20.80;86.70;;;;;;5072995;28;20448;-84
2022/07/14 01:53:53;;;;;;;0.60;0.50;;;20.80;87.40;;;;;;5073279;28;20448;-84
2022/07/14 01:56:22;;;;;;;0.60;0.50;;;20.80;87.40;;;;;;5073272;28;20462;-84
2022/07/14 01:58:49;;;;;;;0.50;0.50;;;20.80;86.80;;;;;;5073178;28;20603;-84
2022/07/14 02:04:02;;;;;;;0.40;0.40;;;20.70;87.00;;;;;;5073314;28;20497;-84
2022/07/14 02:06:29;;;;;;;0.50;0.50;;;20.60;85.80;;;;;;5073181;28;20456;-84
2022/07/14 02:08:56;;;;;;;0.40;0.40;;;20.60;85.30;;;;;;5073003;28;20506;-83
2022/07/14 02:14:09;;;;;;;1.60;0.47;;;20.50;84.40;;;;;;5073162;28;20543;-83
2022/07/14 02:16:35;;;;;;;0.50;0.50;;;20.60;83.70;;;;;;5073065;28;20449;-83
2022/07/14 02:19:03;;;;;;;0.50;0.50;;;20.50;83.50;;;;;;5072965;28;20483;-83
2022/07/14 02:21:30;;;;;;;0.40;0.40;;;20.60;84.40;;;;;;5072993;28;20448;-83
2022/07/14 02:23:57;;;;;;;0.60;0.60;;;20.50;85.20;;;;;;5072969;28;20457;-83
2022/07/14 02:26:26;;;;;;;0.50;0.40;;;20.50;86.70;;;;;;5072662;28;20796;-83
2022/07/14 02:28:53;;;;;;;0.50;0.50;;;20.40;87.30;;;;;;5072766;28;20567;-83
2022/07/14 02:31:20;;;;;;;0.83;0.60;;;20.30;87.60;;;;;;5072582;28;20453;-83
2022/07/14 02:33:47;;;;;;;0.53;0.50;;;20.30;87.00;;;;;;5072846;28;20449;-83
2022/07/14 02:36:14;;;;;;;0.50;0.50;;;20.20;86.70;;;;;;5072836;28;20437;-83
2022/07/14 02:38:41;;;;;;;0.40;0.40;;;20.20;86.40;;;;;;5072293;28;20492;-83
2022/07/14 02:41:07;;;;;;;0.77;0.77;;;20.10;86.20;;;;;;5072833;28;20799;-83
2022/07/14 02:43:36;;;;;;;0.40;0.40;;;20.10;86.40;;;;;;5072762;28;20460;-83
2022/07/14 02:46:03;;;;;;;0.70;0.60;;;20.10;86.30;;;;;;5072548;28;20433;-83
2022/07/14 02:48:30;;;;;;;0.60;0.40;;;20.00;85.80;;;;;;5072598;28;20492;-83
2022/07/14 02:51:01;;;;;;;0.50;0.50;;;20.00;85.30;;;;;;5072426;28;20792;-83
2022/07/14 02:53:28;;;;;;;2.10;0.50;;;20.00;85.50;;;;;;5072577;28;20456;-83
2022/07/14 02:55:55;;;;;;;0.50;0.50;;;20.00;84.00;;;;;;5072706;28;20453;-83
2022/07/14 02:58:23;;;;;;;0.50;0.50;;;20.10;83.50;;;;;;5072285;28;21002;-83
2022/07/14 03:00:52;;;;;;;0.50;0.50;;;20.10;84.20;;;;;;5072654;28;20509;-83
2022/07/14 03:03:19;;;;;;;0.40;0.30;;;20.10;84.50;;;;;;5075325;28;20486;-83
2022/07/14 03:05:46;;;;;;;0.50;0.50;;;20.10;84.00;;;;;;5076139;28;20448;-83
2022/07/14 03:08:13;;;;;;;0.60;0.50;;;20.10;81.90;;;;;;5075646;28;20847;-83
2022/07/14 03:10:40;;;;;;;0.40;0.40;;;20.10;81.20;;;;;;5076023;28;20464;-83
2022/07/14 03:13:07;;;;;;;0.50;0.50;;;20.10;80.40;;;;;;5075990;28;20456;-83
2022/07/14 03:15:34;;;;;;;0.60;0.40;;;20.10;79.50;;;;;;5076022;28;20502;-83
2022/07/14 03:18:02;;;;;;;0.70;0.50;;;20.20;79.10;;;;;;5075848;28;20471;-83
2022/07/14 03:20:29;;;;;;;0.40;0.40;;;20.20;79.50;;;;;;5075908;28;20460;-83
2022/07/14 03:22:56;;;;;;;0.40;0.40;;;20.20;79.60;;;;;;5075539;28;20445;-83
2022/07/14 03:25:23;;;;;;;0.50;0.50;;;20.20;79.80;;;;;;5075807;28;20449;-83
2022/07/14 03:27:50;;;;;;;0.50;0.50;;;20.20;79.30;;;;;;5075642;28;20854;-83
2022/07/14 03:30:17;;;;;;;0.40;0.40;;;20.30;79.10;;;;;;5076249;28;20451;-83
2022/07/14 03:32:44;;;;;;;0.40;0.40;;;20.20;79.60;;;;;;5075658;28;20444;-83
2022/07/14 03:35:12;;;;;;;0.40;0.40;;;20.20;79.60;;;;;;5075602;28;20448;-83
2022/07/14 03:37:38;;;;;;;0.40;0.40;;;20.20;79.40;;;;;;5075230;28;20472;-84
2022/07/14 03:40:07;;;;;;;0.50;0.50;;;20.20;80.90;;;;;;5075186;28;20955;-83
2022/07/14 03:42:34;;;;;;;0.60;0.60;;;20.20;80.70;;;;;;5075144;28;20948;-83
2022/07/14 03:45:01;;;;;;;0.50;0.50;;;20.20;80.50;;;;;;5075393;28;20452;-83
2022/07/14 03:47:27;;;;;;;0.50;0.50;;;20.20;80.30;;;;;;5075189;28;20475;-83
2022/07/14 03:49:54;;;;;;;0.77;0.50;;;20.10;80.20;;;;;;5075261;28;20451;-83
2022/07/14 03:52:22;;;;;;;0.40;0.40;;;20.10;81.50;;;;;;5075300;28;20453;-83
2022/07/14 03:54:49;;;;;;;0.50;0.50;;;20.10;81.40;;;;;;5075420;28;20451;-83
2022/07/14 03:57:16;;;;;;;0.47;0.47;;;20.10;81.70;;;;;;5075211;28;20468;-83
2022/07/14 03:59:43;;;;;;;0.50;0.40;;;20.10;81.30;;;;;;5075134;28;20445;-83
2022/07/14 04:02:10;;;;;;;1.43;0.50;;;20.10;81.20;;;;;;5075087;28;20453;-83
2022/07/14 04:04:37;;;;;;;0.40;0.40;;;20.20;81.30;;;;;;5074986;28;20449;-83
2022/07/14 04:07:04;;;;;;;0.60;0.50;;;20.10;81.20;;;;;;5074909;28;20459;-83
2022/07/14 04:09:32;;;;;;;0.50;0.50;;;20.20;81.40;;;;;;5074556;28;20476;-83
2022/07/14 04:11:59;;;;;;;0.87;0.80;;;20.20;82.70;;;;;;5074869;28;20555;-82
2022/07/14 04:14:26;;;;;;;1.63;0.50;;;20.20;83.20;;;;;;5074726;28;20456;-83
2022/07/14 04:16:53;;;;;;;0.43;0.43;;;20.20;84.00;;;;;;5074718;28;20455;-83
2022/07/14 04:19:20;;;;;;;0.70;0.70;;;20.20;84.90;;;;;;5074725;28;20812;-83
2022/07/14 04:21:47;;;;;;;0.50;0.40;;;20.10;85.40;;;;;;5074674;28;20448;-84
2022/07/14 04:24:14;;;;;;;0.70;0.50;;;20.10;86.20;;;;;;5074631;28;20454;-83
2022/07/14 04:26:42;;;;;;;0.60;0.60;;;20.00;88.00;;;;;;5074595;28;20456;-84
2022/07/14 04:29:10;;;;;;;0.87;0.60;;;20.00;89.60;;;;;;5074404;28;20487;-83
2022/07/14 04:31:37;;;;;;;0.60;0.60;;;19.90;90.60;;;;;;5075278;28;20524;-83
2022/07/14 04:34:04;;;;;;;0.90;0.60;;;19.90;91.10;;;;;;5074129;28;20940;-83
2022/07/14 04:36:31;;;;;;;0.80;0.70;;;19.90;91.40;;;;;;5074061;28;20453;-83
2022/07/14 04:38:57;;;;;;;2.20;0.60;;;19.80;91.60;;;;;;5073823;28;20836;-83
2022/07/14 04:41:25;;;;;;;0.73;0.60;;;19.80;91.70;;;;;;5073933;28;20950;-83
2022/07/14 04:43:53;;;;;;;0.50;0.50;;;19.80;92.10;;;;;;5074207;28;20453;-82
2022/07/14 04:46:20;;;;;;;0.60;0.50;;;19.80;92.40;;;;;;5074167;28;20444;-83
2022/07/14 04:54:15;;;;;;;1.23;0.70;;;19.70;92.70;;;;;;5074091;28;20404;-83
2022/07/14 04:56:42;;;;;;;0.60;0.60;;;19.70;92.80;;;;;;5074022;28;20441;-83
2022/07/14 04:59:10;;;;;;;0.80;0.67;;;19.70;93.10;;;;;;5073921;28;20471;-83
2022/07/14 05:01:37;;;;;;;1.27;0.70;;;19.70;93.30;;;;;;5073952;28;20448;-83
2022/07/14 05:04:04;;;;;;;0.93;0.80;;;19.80;94.00;;;;;;5073566;28;20448;-83
2022/07/14 05:06:31;;;;;;;1.53;0.80;;;19.80;94.50;;;;;;5073839;28;20452;-83
2022/07/14 05:08:57;;;;;;;1.87;0.90;;;19.80;94.80;;;;;;5073383;28;20979;-83
2022/07/14 05:11:24;;;;;;;0.70;0.70;;;19.90;95.20;;;;;;5073761;28;20453;-83
2022/07/14 05:13:52;;;;;;;1.87;0.70;;;19.90;95.20;;;;;;5073510;28;20456;-82
2022/07/14 05:16:20;;;;;;;0.60;0.60;;;19.90;95.30;;;;;;5073716;28;20448;-83
2022/07/14 05:18:47;;;;;;;0.60;0.60;;;20.00;95.50;;;;;;5073637;28;20467;-83
2022/07/14 05:21:14;;;;;;;1.17;1.10;;;20.00;95.50;;;;;;5073329;28;20448;-83
2022/07/14 05:23:42;;;;;;;0.60;0.60;;;20.10;95.80;;;;;;5073628;28;20448;-83
2022/07/14 05:26:11;;;;;;;0.50;0.50;;;20.20;95.90;;;;;;5073108;28;20498;-83
2022/07/14 05:28:38;;;;;;;2.33;0.60;;;20.20;95.20;;;;;;5073411;28;20491;-83
2022/07/14 05:31:04;;;;;;;0.43;0.43;;;20.30;94.80;;;;;;5073514;28;20444;-83
2022/07/14 05:33:33;;;;;;;1.13;0.40;;;20.30;94.80;;;;;;5073481;28;20467;-83
2022/07/14 05:35:59;;;;;;;0.60;0.60;;;20.40;94.60;;;;;;5073505;28;20448;-83
2022/07/14 05:38:27;;;;;;;0.60;0.60;;;20.50;94.40;;;;;;5072855;28;20511;-83
2022/07/14 05:40:54;;;;;;;1.33;0.90;;;20.60;94.70;;;;;;5073377;28;20459;-83
2022/07/14 05:43:21;;;;;;;0.90;0.77;;;20.70;94.90;;;;;;5073369;28;20522;-84
2022/07/14 05:45:48;;;;;;;0.70;0.50;;;20.80;94.90;;;;;;5073259;28;20793;-83
2022/07/14 05:48:14;;;;;;;0.90;0.57;;;20.90;93.30;;;;;;5073215;28;20483;-83
2022/07/14 05:50:42;;;;;;;0.50;0.50;;;21.00;92.80;;;;;;5073253;28;20464;-83
2022/07/14 05:53:09;;;;;;;1.03;0.50;;;21.10;91.20;;;;;;5073354;28;20452;-85
2022/07/14 05:55:36;;;;;;;0.43;0.43;;;21.20;90.00;;;;;;5073337;28;20444;-85
2022/07/14 05:58:03;;;;;;;0.60;0.60;;;21.30;89.80;;;;;;5072983;28;20472;-86
2022/07/14 06:00:30;;;;;;;0.50;0.50;;;21.50;90.40;;;;;;5073226;28;20480;-85
2022/07/14 06:02:57;;;;;;;0.90;0.40;;;21.60;90.10;;;;;;5072946;28;20958;-85
2022/07/14 06:05:24;;;;;;;0.70;0.50;;;21.70;90.00;;;;;;5073164;28;20449;-85
2022/07/14 06:07:52;;;;;;;0.50;0.50;;;21.80;90.20;;;;;;5073177;28;20464;-85
2022/07/14 06:10:19;;;;;;;0.50;0.50;;;22.00;89.70;;;;;;5073208;28;20819;-85
2022/07/14 06:12:46;;;;;;;0.40;0.40;;;22.10;88.00;;;;;;5072865;28;20455;-85
2022/07/14 06:15:14;;;;;;;0.60;0.60;;;22.40;88.80;;;;;;5073105;28;20555;-85
2022/07/14 06:17:40;;;;;;;0.50;0.50;;;22.60;89.00;;;;;;5073019;28;20468;-85
2022/07/14 06:20:08;;;;;;;0.40;0.40;;;22.90;89.20;;;;;;5072797;28;20973;-85
2022/07/14 06:22:35;;;;;;;0.40;0.40;;;23.10;86.40;;;;;;5073101;28;20436;-86
2022/07/14 06:25:04;;;;;;;0.50;0.50;;;23.30;87.40;;;;;;5072887;28;20432;-86
2022/07/14 06:27:31;;;;;;;1.05;0.50;;;23.40;87.70;;;;;;5072909;28;20224;-86
2022/07/14 06:29:58;;;;;;;0.60;0.50;;;23.60;88.70;;;;;;5072651;28;20222;-86
2022/07/14 06:32:25;;;;;;;2.65;0.80;;;23.80;88.10;;;;;;5073033;28;20182;-86
2022/07/14 06:34:52;;;;;;;0.63;0.60;;;23.90;87.70;;;;;;5072951;28;20206;-84
2022/07/14 06:37:19;;;;;;;0.50;0.50;;;24.10;88.00;;;;;;5073663;28;20736;-84
2022/07/14 06:39:46;;;;;;;1.45;0.65;;;24.30;89.00;;;;;;5076260;28;20202;-84
2022/07/14 06:42:14;;;;;;;0.77;0.40;;;24.40;87.10;;;;;;5076594;28;20198;-84
2022/07/14 06:44:41;;;;;;;2.67;0.70;;;24.60;87.80;;;;;;5076521;28;20206;-84
2022/07/14 06:47:08;;;;;;;0.60;0.60;;;24.80;87.30;;;;;;5076377;28;20229;-84
2022/07/14 06:49:35;;;;;;;0.57;0.57;;;24.90;84.90;;;;;;5077199;28;20226;-84
2022/07/14 06:52:02;;;;;;;0.70;0.60;;;25.00;82.60;;;;;;5076343;28;20206;-84
2022/07/14 06:54:29;;;;;;;0.50;0.50;;;25.10;83.10;;;;;;5076402;28;20209;-84
2022/07/14 06:56:55;;;;;;;0.60;0.55;;;25.30;83.80;;;;;;5076239;28;20202;-84
2022/07/14 06:59:23;;;;;;;1.02;0.90;;;25.40;84.90;;;;;;5076276;28;20285;-85
2022/07/14 07:01:50;;;;;;;0.70;0.70;;;25.50;83.20;;;;;;5075985;28;20707;-84
2022/07/14 07:04:17;;;;;;;0.70;0.70;;;25.60;83.00;;;;;;5076248;28;20209;-84
2022/07/14 07:06:45;;;;;;;0.50;0.50;;;25.60;84.00;;;;;;5076102;28;20202;-85
2022/07/14 07:09:13;;;;;;;0.60;0.60;;;25.70;85.30;;;;;;5075678;28;20693;-85
2022/07/14 07:11:41;;;;;;;0.52;0.52;;;25.80;82.30;;;;;;5076168;28;20206;-85
2022/07/14 07:14:08;;;;;;;0.50;0.50;;;25.80;81.90;;;;;;5076134;28;20568;-84
2022/07/14 07:16:36;;;;;;;0.70;0.70;;;26.00;83.00;;;;;;5075987;28;20213;-85
2022/07/14 07:19:03;;;;;;;0.68;0.68;;;26.00;83.10;;;;;;5075894;28;20249;-85
2022/07/14 07:21:30;;;;;;;0.60;0.60;;;26.10;82.10;;;;;;5075853;28;20214;-85
2022/07/14 07:23:57;;;;;;;0.60;0.60;;;26.30;79.50;;;;;;5075564;28;20687;-85
2022/07/14 07:26:25;;;;;;;0.60;0.60;;;26.50;79.20;;;;;;5075736;28;20206;-85
2022/07/14 07:28:52;;;;;;;0.80;0.70;;;26.60;78.20;;;;;;5075406;28;20234;-85
2022/07/14 07:31:19;;;;;;;0.63;0.63;;;26.70;78.30;;;;;;5075556;28;20210;-85
2022/07/14 07:33:48;;;;;;;0.75;0.57;;;26.90;79.70;;;;;;5075685;28;20220;-85
2022/07/14 07:36:15;;;;;;;0.70;0.70;;;27.20;77.50;;;;;;5075621;28;20206;-85
2022/07/14 07:38:42;;;;;;;0.68;0.68;;;27.30;79.50;;;;;;5075108;28;20230;-84
2022/07/14 07:41:09;;;;;;;0.75;0.75;;;27.50;77.90;;;;;;5075212;28;20696;-85
2022/07/14 07:43:36;;;;;;;0.85;0.65;;;27.50;77.90;;;;;;5075444;28;20296;-85
2022/07/14 07:46:05;;;;;;;0.63;0.63;;;27.50;78.60;;;;;;5075416;28;20213;-84
2022/07/14 07:48:32;;;;;;;0.77;0.77;;;27.50;79.30;;;;;;5074788;28;20241;-85
2022/07/14 07:51:01;;;;;;;0.80;0.80;;;27.40;79.20;;;;;;5075366;28;20229;-85
2022/07/14 07:53:27;;;;;;;0.60;0.60;;;27.50;80.40;;;;;;5076086;28;20206;-86
2022/07/14 07:55:55;;;;;;;0.77;0.77;;;27.90;80.40;;;;;;5074991;28;20190;-86
2022/07/14 07:58:22;;;;;;;0.50;0.50;;;28.30;78.00;;;;;;5075125;28;20244;-86
2022/07/14 08:00:48;;;;;;;0.60;0.60;;;28.70;78.00;;;;;;5076008;28;20195;-86
2022/07/14 08:03:15;;;;;;;0.70;0.70;;;29.10;75.80;;;;;;5075769;28;20202;-86
2022/07/14 08:05:42;;;;;;;0.60;0.60;;;29.30;72.60;;;;;;5075057;28;20206;-86
2022/07/14 08:08:10;;;;;;;0.60;0.60;;;29.50;73.60;;;;;;5074820;28;20597;-86
2022/07/14 08:10:37;;;;;;;0.60;0.60;;;29.70;71.60;;;;;;5074943;28;20234;-86
2022/07/14 08:13:05;;;;;;;0.70;0.70;;;29.90;69.30;;;;;;5075453;28;20204;-92
2022/07/14 08:15:31;;;;;;;0.73;0.60;;;30.10;67.40;;;;;;5075181;28;20202;-86
2022/07/14 08:17:59;;;;;;;1.80;0.70;;;30.20;67.10;;;;;;5074620;28;20705;-86
2022/07/14 08:20:26;;;;;;;0.68;0.68;;;30.30;65.50;;;;;;5074785;28;20232;-86
2022/07/14 08:22:52;;;;;;;1.45;0.80;;;30.40;64.70;;;;;;5074492;28;20198;-86
2022/07/14 08:25:20;;;;;;;0.68;0.68;;;30.30;64.80;;;;;;5074471;28;20209;-86
2022/07/14 08:27:47;;;;;;;3.65;0.75;;;30.40;62.70;;;;;;5074292;28;20737;-87
2022/07/14 08:30:14;;;;;;;1.27;0.70;;;30.50;65.60;;;;;;5074541;28;20598;-86
2022/07/14 08:32:44;;;;;;;0.70;0.68;;;30.60;65.00;;;;;;5074419;28;20200;-86
2022/07/14 08:35:14;;;;;;;0.60;0.60;;;30.70;63.20;;;;;;5074547;28;20204;-86
2022/07/14 08:37:42;;;;;;;0.60;0.60;;;30.60;60.30;;;;;;5074090;28;20240;-87
2022/07/14 08:40:12;;;;;;;0.60;0.60;;;30.50;61.00;;;;;;5074617;28;20578;-86
2022/07/14 08:42:44;;;;;;;1.20;0.80;;;30.50;62.00;;;;;;5074096;28;20243;-86
2022/07/14 08:45:13;;;;;;;0.50;0.50;;;30.50;62.30;;;;;;5074062;28;20645;-86
2022/07/14 08:47:40;;;;;;;0.90;0.60;;;30.50;62.50;;;;;;5074309;28;20228;-86
2022/07/14 08:50:10;;;;;;;0.63;0.63;;;30.80;63.00;;;;;;5074337;28;20209;-87
2022/07/14 08:52:37;;;;;;;0.80;0.80;;;30.90;63.50;;;;;;5073947;28;20212;-87
2022/07/14 08:55:07;;;;;;;0.70;0.70;;;31.00;62.20;;;;;;5074174;28;20632;-86
2022/07/14 08:57:35;;;;;;;0.57;0.57;;;31.30;60.00;;;;;;5074267;28;20779;-86
2022/07/14 09:00:07;;;;;;;0.60;0.60;;;31.50;59.00;;;;;;5073315;28;20195;-87
2022/07/14 09:02:34;;;;;;;0.70;0.70;;;31.70;56.90;;;;;;5074476;28;20197;-87
2022/07/14 09:05:01;;;;;;;0.65;0.65;;;31.90;55.40;;;;;;5074122;28;20206;-87
2022/07/14 09:07:33;;;;;;;0.50;0.50;;;32.00;55.00;;;;;;5074007;28;20230;-87
2022/07/14 09:10:06;;;;;;;0.70;0.55;;;32.10;55.60;;;;;;5074432;28;20240;-87
2022/07/14 09:12:33;;;;;;;0.50;0.50;;;32.10;54.90;;;;;;5075273;28;20252;-87
2022/07/14 09:17:53;;;;;;;0.65;0.57;;;32.10;50.60;;;;;;5073592;28;20693;-87
2022/07/14 09:20:21;;;;;;;0.50;0.50;;;32.10;50.60;;;;;;5074110;28;20182;-87
2022/07/14 09:22:49;;;;;;;0.50;0.50;;;31.90;51.00;;;;;;5073856;28;20209;-86
2022/07/14 09:25:17;;;;;;;0.60;0.60;;;31.70;52.60;;;;;;5073980;28;20237;-88
2022/07/14 09:27:46;;;;;;;0.50;0.50;;;31.50;55.40;;;;;;5073693;28;20224;-87
2022/07/14 09:30:13;;;;;;;0.70;0.60;;;31.50;54.80;;;;;;5073869;28;20268;-86
2022/07/14 09:32:45;;;;;;;0.60;0.60;;;31.70;55.30;;;;;;5073422;28;20698;-82
2022/07/14 09:35:15;;;;;;;0.50;0.50;;;31.90;55.10;;;;;;5074492;28;20208;-88
2022/07/14 09:37:43;;;;;;;0.60;0.60;;;32.10;52.60;;;;;;5073347;28;20267;-86
2022/07/14 09:40:15;;;;;;;0.57;0.52;;;32.10;48.70;;;;;;5073592;28;20204;-87
2022/07/14 09:42:52;;;;;;;0.60;0.60;;;32.20;48.70;;;;;;5073669;28;20199;-86
2022/07/14 09:45:24;;;;;;;0.75;0.63;;;32.30;47.90;;;;;;5074205;28;20215;-90
2022/07/14 09:47:58;;;;;;;0.50;0.50;;;32.50;48.10;;;;;;5074396;28;20222;-86
2022/07/14 09:50:41;;;;;;;0.77;0.40;;;32.70;47.60;;;;;;5074045;28;20208;-88
2022/07/14 09:53:11;;;;;;;1.48;0.50;;;33.00;47.10;;;;;;5074308;28;20191;-88
2022/07/14 09:55:39;;;;;;;0.50;0.50;;;33.10;46.40;;;;;;5073524;28;20193;-88
2022/07/14 09:58:07;;;;;;;0.40;0.40;;;33.10;47.20;;;;;;5073542;28;20598;-87
2022/07/14 10:00:35;;;;;;;0.50;0.50;;;33.10;46.80;;;;;;5073648;28;20210;-88
2022/07/14 10:03:04;;;;;;;0.50;0.50;;;33.10;44.70;;;;;;5073709;28;20211;-87
2022/07/14 10:05:33;;;;;;;1.52;0.50;;;33.10;46.60;;;;;;5073794;28;20187;-88
2022/07/14 10:08:03;;;;;;;0.60;0.60;;;32.90;44.80;;;;;;5073908;28;20226;-88
2022/07/14 10:10:34;;;;;;;0.60;0.60;;;32.80;46.80;;;;;;5074032;28;20283;-87
2022/07/14 10:13:02;;;;;;;0.60;0.60;;;32.60;47.10;;;;;;5077770;28;20192;-86
2022/07/14 10:15:29;;;;;;;0.57;0.57;;;32.40;48.80;;;;;;5077174;28;20203;-87
2022/07/14 10:17:57;;;;;;;0.60;0.60;;;32.30;47.40;;;;;;5077211;28;20261;-87
2022/07/14 10:20:24;;;;;;;0.50;0.50;;;32.30;47.40;;;;;;5077581;28;20565;-88
2022/07/14 10:22:54;;;;;;;0.68;0.60;;;32.20;48.20;;;;;;5077432;28;20544;-87
2022/07/14 10:25:23;;;;;;;0.60;0.60;;;32.30;47.40;;;;;;5077221;28;20208;-87
2022/07/14 10:27:51;;;;;;;0.70;0.70;;;32.30;47.60;;;;;;5077105;28;20228;-87
2022/07/14 10:30:18;;;;;;;0.70;0.70;;;32.40;48.60;;;;;;5077167;28;20228;-88
2022/07/14 10:32:54;;;;;;;0.60;0.60;;;32.40;47.60;;;;;;5077259;28;20560;-87
2022/07/14 10:35:48;;;;;;;0.60;0.50;;;32.50;46.90;;;;;;5077039;28;20276;-88
2022/07/14 10:38:31;;;;;;;0.60;0.60;;;32.60;47.00;;;;;;5076644;28;20746;-87
2022/07/14 10:41:07;;;;;;;0.60;0.60;;;32.60;45.00;;;;;;5076603;28;20181;-87
2022/07/14 10:43:51;;;;;;;0.57;0.57;;;32.60;46.10;;;;;;5076946;28;20311;-87
2022/07/14 10:46:33;;;;;;;0.50;0.50;;;32.70;45.80;;;;;;5076699;28;20653;-88
2022/07/14 10:49:02;;;;;;;0.68;0.50;;;32.70;44.80;;;;;;5076802;28;20229;-88
2022/07/14 10:51:31;;;;;;;0.60;0.60;;;32.70;45.80;;;;;;5076440;28;20220;-86
2022/07/14 10:54:07;;;;;;;0.77;0.60;;;32.80;47.10;;;;;;5076803;28;20206;-88
2022/07/14 10:56:36;;;;;;;0.68;0.68;;;32.70;44.60;;;;;;5077158;28;20193;-87
2022/07/14 10:59:35;;;;;;;1.48;0.80;;;32.70;45.20;;;;;;5076771;28;20276;-85
2022/07/14 11:02:27;;;;;;;1.67;0.80;;;32.80;44.90;;;;;;5077061;28;20197;-88
2022/07/14 11:05:18;;;;;;;0.80;0.80;;;33.10;47.00;;;;;;5073945;28;20255;-87
2022/07/14 11:07:51;;;;;;;0.50;0.50;;;33.40;46.00;;;;;;5076878;28;20222;-87
2022/07/14 11:10:57;;;;;;;0.63;0.63;;;34.00;45.70;;;;;;5077195;28;20229;-88
2022/07/14 11:13:26;;;;;;;0.55;0.50;;;34.60;43.20;;;;;;5071335;28;20205;-88
2022/07/14 11:15:56;;;;;;;0.65;0.63;;;35.00;42.30;;;;;;5076481;28;20179;-86
2022/07/14 11:18:28;;;;;;;0.68;0.68;;;35.00;43.10;;;;;;5076596;28;20232;-88
2022/07/14 11:21:00;;;;;;;0.60;0.60;;;34.70;43.00;;;;;;5076503;28;20182;-92
2022/07/14 11:23:28;;;;;;;1.02;0.60;;;34.30;44.80;;;;;;5076196;28;20197;-89
2022/07/14 11:25:56;;;;;;;0.70;0.70;;;34.00;43.60;;;;;;5075958;28;20675;-90
2022/07/14 11:28:44;;;;;;;0.60;0.60;;;33.70;42.30;;;;;;5076309;28;20221;-88
2022/07/14 11:31:13;;;;;;;0.50;0.50;;;33.50;42.50;;;;;;5075852;28;20212;-88
2022/07/14 11:36:17;;;;;;;0.60;0.60;;;33.30;43.20;;;;;;5076084;28;20211;-89
2022/07/14 11:36:29;;;;;;;1.00;0.77;;;33.20;44.80;;;;;;5076618;28;20211;-89
2022/07/14 11:39:24;;;;;;;0.80;0.70;;;33.10;44.10;;;;;;5076278;28;20238;-89
2022/07/14 11:42:01;;;;;;;0.55;0.55;;;33.10;45.40;;;;;;5074750;28;20226;-89
2022/07/14 11:44:49;;;;;;;0.60;0.60;;;33.00;44.70;;;;;;5077159;28;20290;-91
2022/07/14 11:47:18;;;;;;;0.70;0.70;;;33.00;45.00;;;;;;5076493;28;20229;-89
2022/07/14 11:49:58;;;;;;;0.60;0.60;;;32.80;45.50;;;;;;5076625;28;20214;-89
2022/07/14 11:52:27;;;;;;;5.97;0.88;;;32.70;44.00;;;;;;5078024;28;20223;-90
2022/07/14 11:54:56;;;;;;;0.85;0.85;;;32.60;44.80;;;;;;5077360;28;20202;-91
2022/07/14 11:57:23;;;;;;;0.50;0.50;;;32.60;44.20;;;;;;5078042;28;20232;-88
2022/07/14 11:59:53;;;;;;;0.60;0.60;;;32.50;44.80;;;;;;5081684;28;20196;-90
2022/07/14 12:02:21;;;;;;;0.50;0.50;;;32.60;45.70;;;;;;5079223;28;20213;-89
2022/07/14 12:04:49;;;;;;;1.23;0.60;;;32.60;46.20;;;;;;5079086;28;20204;-89
2022/07/14 12:07:16;;;;;;;0.70;0.65;;;32.70;45.70;;;;;;5076337;28;20214;-89
2022/07/14 12:09:43;;;;;;;0.75;0.70;;;32.70;45.50;;;;;;5076669;28;20204;-89
2022/07/14 12:12:10;;;;;;;0.70;0.70;;;32.70;44.70;;;;;;5076664;28;20679;-89
2022/07/14 12:14:44;;;;;;;0.70;0.70;;;32.60;45.20;;;;;;5076688;28;20203;-89
2022/07/14 12:17:12;;;;;;;0.90;0.65;;;32.50;45.40;;;;;;5077055;28;20251;-89
2022/07/14 12:19:39;;;;;;;1.20;0.70;;;32.40;45.50;;;;;;5075754;28;20205;-89
2022/07/14 12:22:07;;;;;;;0.63;0.63;;;32.30;43.70;;;;;;5076009;28;20214;-89
2022/07/14 12:24:34;;;;;;;0.70;0.70;;;32.20;45.40;;;;;;5075727;28;20210;-89
2022/07/14 12:27:03;;;;;;;0.77;0.65;;;32.20;46.30;;;;;;5076378;28;20291;-90
2022/07/14 12:29:30;;;;;;;0.77;0.57;;;32.30;45.50;;;;;;5077153;28;20202;-89
2022/07/14 12:31:59;;;;;;;0.85;0.50;;;32.30;45.60;;;;;;5076198;28;20673;-88
2022/07/14 12:34:28;;;;;;;0.50;0.50;;;32.30;45.50;;;;;;5077573;28;20607;-89
2022/07/14 12:36:57;;;;;;;0.60;0.60;;;32.10;44.70;;;;;;5075626;28;20203;-88
2022/07/14 12:39:25;;;;;;;0.55;0.55;;;32.00;46.00;;;;;;5077654;28;20258;-88
2022/07/14 12:41:52;;;;;;;3.15;0.60;;;31.90;46.00;;;;;;5077585;28;20204;-90
2022/07/14 12:44:19;;;;;;;0.60;0.60;;;31.80;46.30;;;;;;5076447;28;20659;-88
2022/07/14 12:46:46;;;;;;;0.88;0.88;;;31.70;48.20;;;;;;5076731;28;20570;-89
2022/07/14 12:49:14;;;;;;;0.68;0.68;;;31.60;47.20;;;;;;5076476;28;20599;-90
2022/07/14 12:51:44;;;;;;;0.60;0.60;;;31.70;46.50;;;;;;5075948;28;20224;-89
2022/07/14 12:54:15;;;;;;;0.68;0.68;;;31.60;48.20;;;;;;5075937;28;20662;-89
2022/07/14 12:56:51;;;;;;;0.73;0.73;;;31.60;47.80;;;;;;5077165;28;20200;-92
2022/07/14 12:59:19;;;;;;;1.05;0.60;;;31.60;46.50;;;;;;5075829;28;20302;-89
2022/07/14 13:01:51;;;;;;;0.65;0.65;;;31.50;47.40;;;;;;5076576;28;20668;-91
2022/07/14 13:04:34;;;;;;;1.60;1.00;;;31.60;47.60;;;;;;5076494;28;20570;-88
2022/07/14 13:07:12;;;;;;;0.60;0.60;;;31.60;48.30;;;;;;5075764;28;20231;-89
2022/07/14 13:09:39;;;;;;;0.60;0.57;;;31.60;49.00;;;;;;5075348;28;20195;-89